createdAt,value
2022-09-21T00:01:16.310Z,11.50
2022-09-21T00:03:43.585Z,11.50
2022-09-21T00:06:13.501Z,11.50
2022-09-21T00:08:40.622Z,11.50
2022-09-21T00:11:08.665Z,11.40
2022-09-21T00:13:37.895Z,11.40
2022-09-21T00:16:09.048Z,11.40
2022-09-21T00:18:36.523Z,11.40
2022-09-21T00:21:12.949Z,11.30
2022-09-21T00:23:40.534Z,11.30
2022-09-21T00:26:13.528Z,11.20
2022-09-21T00:28:40.749Z,11.20
2022-09-21T00:31:12.126Z,11.20
2022-09-21T00:33:40.870Z,11.20
2022-09-21T00:36:12.085Z,11.20
2022-09-21T00:38:39.057Z,11.20
2022-09-21T00:41:07.274Z,11.20
2022-09-21T00:43:35.916Z,11.10
2022-09-21T00:46:12.214Z,11.10
2022-09-21T00:48:39.007Z,11.10
2022-09-21T00:51:08.148Z,11.10
2022-09-21T00:53:37.559Z,11.00
2022-09-21T00:56:06.688Z,11.00
2022-09-21T00:58:42.685Z,11.00
2022-09-21T01:01:12.005Z,11.00
2022-09-21T01:03:39.630Z,10.90
2022-09-21T01:06:06.386Z,10.90
2022-09-21T01:08:35.066Z,10.90
2022-09-21T01:11:15.902Z,10.90
2022-09-21T01:14:15.258Z,10.90
2022-09-21T01:17:11.094Z,10.90
2022-09-21T01:20:20.587Z,10.80
2022-09-21T01:23:16.427Z,10.80
2022-09-21T01:25:59.015Z,10.80
2022-09-21T01:28:57.704Z,10.80
2022-09-21T01:31:31.003Z,10.80
2022-09-21T01:34:05.725Z,10.80
2022-09-21T01:36:34.931Z,10.70
2022-09-21T01:39:12.952Z,10.70
2022-09-21T01:41:42.536Z,10.70
2022-09-21T01:44:17.742Z,10.70
2022-09-21T01:46:47.645Z,10.70
2022-09-21T01:49:27.823Z,10.70
2022-09-21T01:52:02.485Z,10.70
2022-09-21T01:54:39.169Z,10.60
2022-09-21T01:57:14.428Z,10.60
2022-09-21T01:59:52.702Z,10.60
2022-09-21T02:02:58.492Z,10.60
2022-09-21T02:05:28.310Z,10.60
2022-09-21T02:07:55.550Z,10.50
2022-09-21T02:10:39.971Z,10.50
2022-09-21T02:13:08.040Z,10.50
2022-09-21T02:15:40.906Z,10.50
2022-09-21T02:18:33.312Z,10.50
2022-09-21T02:21:04.013Z,10.40
2022-09-21T02:23:45.213Z,10.40
2022-09-21T02:26:17.344Z,10.40
2022-09-21T02:28:51.208Z,10.40
2022-09-21T02:31:31.109Z,10.30
2022-09-21T02:34:34.099Z,10.30
2022-09-21T02:37:33.355Z,10.30
2022-09-21T02:40:22.916Z,10.30
2022-09-21T02:42:55.389Z,10.30
2022-09-21T02:45:26.573Z,10.20
2022-09-21T02:48:14.463Z,10.20
2022-09-21T02:51:03.375Z,10.20
2022-09-21T02:53:36.232Z,10.10
2022-09-21T02:56:07.231Z,10.10
2022-09-21T02:58:38.100Z,10.00
2022-09-21T03:01:07.657Z,10.00
2022-09-21T03:03:34.815Z,10.00
2022-09-21T03:06:02.131Z,10.00
2022-09-21T03:08:30.402Z,10.00
2022-09-21T03:10:57.815Z,10.00
2022-09-21T03:13:24.844Z,10.00
2022-09-21T03:16:02.714Z,9.90
2022-09-21T03:18:30.446Z,9.90
2022-09-21T03:20:57.671Z,9.90
2022-09-21T03:23:24.476Z,9.90
2022-09-21T03:25:54.602Z,9.90
2022-09-21T03:28:21.978Z,9.90
2022-09-21T03:30:50.280Z,9.90
2022-09-21T03:33:18.091Z,9.90
2022-09-21T03:35:45.019Z,9.90
2022-09-21T03:38:12.468Z,9.90
2022-09-21T03:40:39.285Z,9.90
2022-09-21T03:43:05.943Z,9.90
2022-09-21T03:45:32.617Z,9.90
2022-09-21T03:48:01.138Z,9.90
2022-09-21T03:50:29.216Z,9.90
2022-09-21T03:52:56.883Z,9.90
2022-09-21T03:55:24.139Z,9.90
2022-09-21T03:57:50.861Z,9.90
2022-09-21T04:00:18.028Z,9.80
2022-09-21T04:02:44.725Z,9.80
2022-09-21T04:05:17.289Z,9.70
2022-09-21T04:07:47.999Z,9.70
2022-09-21T04:10:17.679Z,9.70
2022-09-21T04:12:45.913Z,9.70
2022-09-21T04:15:19.546Z,9.70
2022-09-21T04:17:47.152Z,9.60
2022-09-21T04:20:13.800Z,9.60
2022-09-21T04:22:43.592Z,9.60
2022-09-21T04:25:12.786Z,9.60
2022-09-21T04:27:39.944Z,9.60
2022-09-21T04:30:07.683Z,9.60
2022-09-21T04:32:34.610Z,9.60
2022-09-21T04:35:01.372Z,9.50
2022-09-21T04:37:28.112Z,9.50
2022-09-21T04:39:54.775Z,9.50
2022-09-21T04:42:21.534Z,9.50
2022-09-21T04:44:48.208Z,9.50
2022-09-21T04:47:15.376Z,9.50
2022-09-21T04:49:42.173Z,9.40
2022-09-21T04:52:08.890Z,9.40
2022-09-21T04:54:35.657Z,9.40
2022-09-21T04:57:02.284Z,9.40
2022-09-21T04:59:28.942Z,9.40
2022-09-21T05:01:55.695Z,9.40
2022-09-21T05:04:22.321Z,9.30
2022-09-21T05:06:49.041Z,9.30
2022-09-21T05:09:34.596Z,9.30
2022-09-21T05:12:02.990Z,9.30
2022-09-21T05:14:29.645Z,9.30
2022-09-21T05:16:56.404Z,9.30
2022-09-21T05:19:23.601Z,9.30
2022-09-21T05:21:50.293Z,9.30
2022-09-21T05:24:17.107Z,9.20
2022-09-21T05:26:43.823Z,9.30
2022-09-21T05:29:10.718Z,9.30
2022-09-21T05:31:58.937Z,9.30
2022-09-21T05:34:57.108Z,9.30
2022-09-21T05:37:51.828Z,9.30
2022-09-21T05:40:19.058Z,9.30
2022-09-21T05:42:46.205Z,9.30
2022-09-21T05:45:18.224Z,9.30
2022-09-21T05:48:28.333Z,9.30
2022-09-21T05:51:03.474Z,9.30
2022-09-21T05:53:30.066Z,9.30
2022-09-21T05:56:04.853Z,9.30
2022-09-21T05:59:01.121Z,9.30
2022-09-21T06:01:27.772Z,9.30
2022-09-21T06:03:55.674Z,9.30
2022-09-21T06:06:22.369Z,9.30
2022-09-21T06:08:49.192Z,9.40
2022-09-21T06:11:16.014Z,9.40
2022-09-21T06:13:43.263Z,9.40
2022-09-21T06:16:10.038Z,9.40
2022-09-21T06:18:40.829Z,9.50
2022-09-21T06:21:08.466Z,9.50
2022-09-21T06:23:35.511Z,9.50
2022-09-21T06:26:02.456Z,9.60
2022-09-21T06:28:29.785Z,9.60
2022-09-21T06:30:58.417Z,9.60
2022-09-21T06:33:25.826Z,9.60
2022-09-21T06:35:54.758Z,9.60
2022-09-21T06:38:21.952Z,9.60
2022-09-21T06:40:48.695Z,9.70
2022-09-21T06:43:15.506Z,9.70
2022-09-21T06:45:42.696Z,9.70
2022-09-21T06:48:09.659Z,9.70
2022-09-21T06:50:36.595Z,9.70
2022-09-21T06:53:04.048Z,9.80
2022-09-21T06:55:31.627Z,9.80
2022-09-21T06:58:05.355Z,9.90
2022-09-21T07:00:32.858Z,9.90
2022-09-21T07:02:59.827Z,9.90
2022-09-21T07:05:26.905Z,10.00
2022-09-21T07:07:59.759Z,10.00
2022-09-21T07:10:26.587Z,10.10
2022-09-21T07:12:53.315Z,10.10
2022-09-21T07:15:21.366Z,10.20
2022-09-21T07:17:52.308Z,10.30
2022-09-21T07:20:19.818Z,10.30
2022-09-21T07:22:46.539Z,10.40
2022-09-21T07:25:14.003Z,10.40
2022-09-21T07:27:40.781Z,10.50
2022-09-21T07:30:08.647Z,10.50
2022-09-21T07:32:36.497Z,10.50
2022-09-21T07:35:03.663Z,10.60
2022-09-21T07:37:31.638Z,10.60
2022-09-21T07:39:58.297Z,10.60
2022-09-21T07:42:26.430Z,10.70
2022-09-21T07:45:03.116Z,10.70
2022-09-21T07:47:31.470Z,10.80
2022-09-21T07:49:58.393Z,10.80
2022-09-21T07:52:25.221Z,10.80
2022-09-21T07:54:51.928Z,10.90
2022-09-21T07:57:37.420Z,10.90
2022-09-21T08:00:05.347Z,11.00
2022-09-21T08:02:32.062Z,11.00
2022-09-21T08:04:58.849Z,11.10
2022-09-21T08:07:26.645Z,11.10
2022-09-21T08:09:53.440Z,11.20
2022-09-21T08:12:20.717Z,11.20
2022-09-21T08:14:48.149Z,11.30
2022-09-21T08:17:15.203Z,11.40
2022-09-21T08:19:41.978Z,11.50
2022-09-21T08:22:08.819Z,11.50
2022-09-21T08:24:35.737Z,11.60
2022-09-21T08:27:02.516Z,11.70
2022-09-21T08:29:30.325Z,11.80
2022-09-21T08:31:57.598Z,11.90
2022-09-21T08:34:24.577Z,11.90
2022-09-21T08:36:55.283Z,12.00
2022-09-21T08:39:22.778Z,12.10
2022-09-21T08:42:08.405Z,12.20
2022-09-21T08:44:43.465Z,12.30
2022-09-21T08:47:16.095Z,12.40
2022-09-21T08:49:49.576Z,12.50
2022-09-21T08:52:19.838Z,12.60
2022-09-21T08:54:53.187Z,12.70
2022-09-21T08:57:20.764Z,12.80
2022-09-21T08:59:49.440Z,12.90
2022-09-21T09:02:51.201Z,13.00
2022-09-21T09:05:45.214Z,13.10
2022-09-21T09:08:26.175Z,13.20
2022-09-21T09:11:01.800Z,13.40
2022-09-21T09:13:37.405Z,13.50
2022-09-21T09:16:07.272Z,13.60
2022-09-21T09:18:51.129Z,13.70
2022-09-21T09:21:45.123Z,13.80
2022-09-21T09:24:33.715Z,13.90
2022-09-21T09:27:15.133Z,13.90
2022-09-21T09:30:03.248Z,14.00
2022-09-21T09:32:47.409Z,14.10
2022-09-21T09:35:44.679Z,14.10
2022-09-21T09:38:39.703Z,14.20
2022-09-21T09:41:18.579Z,14.30
2022-09-21T09:44:13.194Z,14.40
2022-09-21T09:47:23.213Z,14.50
2022-09-21T09:50:13.377Z,14.60
2022-09-21T09:52:41.297Z,14.70
2022-09-21T09:55:30.333Z,14.80
2022-09-21T09:57:58.319Z,14.80
2022-09-21T10:00:25.048Z,14.90
2022-09-21T10:02:58.536Z,15.00
2022-09-21T10:05:38.557Z,15.00
2022-09-21T10:08:05.395Z,15.10
2022-09-21T10:10:37.619Z,15.20
2022-09-21T10:13:07.233Z,15.30
2022-09-21T10:15:34.153Z,15.50
2022-09-21T10:18:11.867Z,15.60
2022-09-21T10:20:38.696Z,15.80
2022-09-21T10:23:05.923Z,16.10
2022-09-21T10:25:34.802Z,16.30
2022-09-21T10:28:06.045Z,16.40
2022-09-21T10:30:36.383Z,16.70
2022-09-21T10:33:03.666Z,17.00
2022-09-21T10:35:30.476Z,17.20
2022-09-21T10:38:27.582Z,17.30
2022-09-21T10:40:55.042Z,17.30
2022-09-21T10:43:25.659Z,17.40
2022-09-21T10:45:57.371Z,17.60
2022-09-21T10:48:26.829Z,17.60
2022-09-21T10:50:54.901Z,17.50
2022-09-21T10:53:30.709Z,17.40
2022-09-21T10:56:15.059Z,17.20
2022-09-21T10:59:20.220Z,17.00
2022-09-21T11:01:49.715Z,16.80
2022-09-21T11:04:49.529Z,16.60
2022-09-21T11:07:37.447Z,16.70
2022-09-21T11:10:16.277Z,16.60
2022-09-21T11:13:20.509Z,16.70
2022-09-21T11:16:11.718Z,16.50
2022-09-21T11:18:53.926Z,16.60
2022-09-21T11:21:34.289Z,16.90
2022-09-21T11:24:31.929Z,17.20
2022-09-21T11:27:11.241Z,17.60
2022-09-21T11:30:07.293Z,18.00
2022-09-21T11:32:53.248Z,18.30
2022-09-21T11:35:27.011Z,18.30
2022-09-21T11:38:02.411Z,18.20
2022-09-21T11:40:39.090Z,18.40
2022-09-21T11:43:26.980Z,18.70
2022-09-21T11:46:06.977Z,19.00
2022-09-21T11:48:56.905Z,19.10
2022-09-21T11:51:26.564Z,18.90
2022-09-21T11:54:13.044Z,18.90
2022-09-21T11:56:57.527Z,18.80
2022-09-21T11:59:43.944Z,18.50
2022-09-21T12:02:45.640Z,18.40
2022-09-21T12:05:33.742Z,18.20
2022-09-21T12:08:24.503Z,18.30
2022-09-21T12:11:30.362Z,18.50
2022-09-21T12:14:22.569Z,18.90
2022-09-21T12:17:40.495Z,19.20
2022-09-21T12:20:26.381Z,19.60
2022-09-21T12:23:03.523Z,19.90
2022-09-21T12:25:38.722Z,20.10
2022-09-21T12:28:13.821Z,20.30
2022-09-21T12:30:45.741Z,20.50
2022-09-21T12:33:34.011Z,20.60
2022-09-21T12:36:10.751Z,20.70
2022-09-21T12:39:20.917Z,20.60
2022-09-21T12:42:19.545Z,20.20
2022-09-21T12:45:00.560Z,20.00
2022-09-21T12:47:58.169Z,19.70
2022-09-21T12:50:36.886Z,19.40
2022-09-21T12:53:04.203Z,19.10
2022-09-21T12:55:30.847Z,18.90
2022-09-21T12:58:22.976Z,19.10
2022-09-21T13:01:09.271Z,19.40
2022-09-21T13:04:03.097Z,19.70
2022-09-21T13:06:35.783Z,19.90
2022-09-21T13:09:07.313Z,20.20
2022-09-21T13:11:51.450Z,20.40
2022-09-21T13:14:18.827Z,20.50
2022-09-21T13:16:58.595Z,20.70
2022-09-21T13:19:29.103Z,20.80
2022-09-21T13:22:19.883Z,20.90
2022-09-21T13:25:03.144Z,21.00
2022-09-21T13:28:09.332Z,21.20
2022-09-21T13:30:42.545Z,21.30
2022-09-21T13:33:30.769Z,21.40
2022-09-21T13:36:00.378Z,21.50
2022-09-21T13:38:34.148Z,21.50
2022-09-21T13:41:04.743Z,21.60
2022-09-21T13:44:08.974Z,21.60
2022-09-21T13:46:35.858Z,21.60
2022-09-21T13:49:15.410Z,21.60
2022-09-21T13:51:57.492Z,21.50
2022-09-21T13:54:28.630Z,21.50
2022-09-21T13:57:32.576Z,21.50
2022-09-21T14:00:28.480Z,21.40
2022-09-21T14:03:04.457Z,21.50
2022-09-21T14:05:43.177Z,21.50
2022-09-21T14:08:16.051Z,21.50
2022-09-21T14:10:53.669Z,21.40
2022-09-21T14:13:32.266Z,21.40
2022-09-21T14:16:34.220Z,21.40
2022-09-21T14:19:02.778Z,21.50
2022-09-21T14:21:29.887Z,21.40
2022-09-21T14:24:22.920Z,21.20
2022-09-21T14:26:58.986Z,21.00
2022-09-21T14:29:27.114Z,20.90
2022-09-21T14:31:57.692Z,20.80
2022-09-21T14:34:31.516Z,20.80
2022-09-21T14:37:02.995Z,20.80
2022-09-21T14:39:34.979Z,20.80
2022-09-21T14:42:12.457Z,20.70
2022-09-21T14:44:42.532Z,20.80
2022-09-21T14:47:36.543Z,20.70
2022-09-21T14:50:18.451Z,20.70
2022-09-21T14:52:59.705Z,20.70
2022-09-21T14:55:35.008Z,20.50
2022-09-21T14:58:11.652Z,20.20
2022-09-21T15:00:42.823Z,20.00
2022-09-21T15:03:27.703Z,19.90
2022-09-21T15:06:24.338Z,19.90
2022-09-21T15:09:37.008Z,19.80
2022-09-21T15:12:19.325Z,19.60
2022-09-21T15:15:05.558Z,19.50
2022-09-21T15:17:32.373Z,19.50
2022-09-21T15:20:03.569Z,19.40
2022-09-21T15:22:31.947Z,19.30
2022-09-21T15:25:03.974Z,19.20
2022-09-21T15:27:33.290Z,19.10
2022-09-21T15:30:04.666Z,19.00
2022-09-21T15:32:41.122Z,18.90
2022-09-21T15:35:18.311Z,18.80
2022-09-21T15:37:48.565Z,18.70
2022-09-21T15:40:21.674Z,18.70
2022-09-21T15:43:11.350Z,18.60
2022-09-21T15:45:58.058Z,18.40
2022-09-21T15:48:42.064Z,18.30
2022-09-21T15:51:15.278Z,18.30
2022-09-21T15:53:52.551Z,18.20
2022-09-21T15:56:22.895Z,18.10
2022-09-21T15:58:50.827Z,18.10
2022-09-21T16:01:21.514Z,18.00
2022-09-21T16:03:51.938Z,17.90
2022-09-21T16:06:21.887Z,17.90
2022-09-21T16:08:49.244Z,17.90
2022-09-21T16:11:37.671Z,17.80
2022-09-21T16:14:33.554Z,17.80
2022-09-21T16:17:12.230Z,17.80
2022-09-21T16:20:11.180Z,17.70
2022-09-21T16:22:39.155Z,17.70
2022-09-21T16:25:30.860Z,17.60
2022-09-21T16:28:02.769Z,17.70
2022-09-21T16:30:53.502Z,17.60
2022-09-21T16:33:41.050Z,17.60
2022-09-21T16:36:20.120Z,17.50
2022-09-21T16:38:55.784Z,17.50
2022-09-21T16:41:27.682Z,17.40
2022-09-21T16:43:58.152Z,17.40
2022-09-21T16:46:26.785Z,17.40
2022-09-21T16:48:55.009Z,17.40
2022-09-21T16:51:25.255Z,17.30
2022-09-21T16:53:52.576Z,17.40
2022-09-21T16:56:19.898Z,17.30
2022-09-21T16:58:47.166Z,17.30
2022-09-21T17:01:20.576Z,17.30
2022-09-21T17:03:48.084Z,17.30
2022-09-21T17:06:20.754Z,17.20
2022-09-21T17:08:49.269Z,17.20
2022-09-21T17:11:20.209Z,17.20
2022-09-21T17:13:47.823Z,17.20
2022-09-21T17:16:18.599Z,17.20
2022-09-21T17:18:46.287Z,17.10
2022-09-21T17:21:13.515Z,17.10
2022-09-21T17:23:41.970Z,17.00
2022-09-21T17:26:19.213Z,17.00
2022-09-21T17:28:46.252Z,17.00
2022-09-21T17:31:14.923Z,16.90
2022-09-21T17:33:42.336Z,16.90
2022-09-21T17:36:13.531Z,16.90
2022-09-21T17:38:40.486Z,16.80
2022-09-21T17:41:16.630Z,16.70
2022-09-21T17:43:53.806Z,16.70
2022-09-21T17:46:46.508Z,16.70
2022-09-21T17:49:13.632Z,16.60
2022-09-21T17:51:59.551Z,16.50
2022-09-21T17:54:26.946Z,16.50
2022-09-21T17:57:05.346Z,16.40
2022-09-21T17:59:34.381Z,16.30
2022-09-21T18:02:02.508Z,16.30
2022-09-21T18:04:33.034Z,16.20
2022-09-21T18:07:00.368Z,16.20
2022-09-21T18:09:27.399Z,16.10
2022-09-21T18:12:13.154Z,16.00
2022-09-21T18:15:23.001Z,16.00
2022-09-21T18:18:31.754Z,15.90
2022-09-21T18:21:05.968Z,15.80
2022-09-21T18:24:07.536Z,15.80
2022-09-21T18:26:34.936Z,15.80
2022-09-21T18:29:22.425Z,15.70
2022-09-21T18:31:57.881Z,15.60
2022-09-21T18:34:54.725Z,15.60
2022-09-21T18:37:36.229Z,15.50
2022-09-21T18:40:36.131Z,15.50
2022-09-21T18:43:34.202Z,15.40
2022-09-21T18:46:10.256Z,15.40
2022-09-21T18:48:54.728Z,15.40
2022-09-21T18:51:52.264Z,15.30
2022-09-21T18:54:27.485Z,15.30
2022-09-21T18:56:55.620Z,15.20
2022-09-21T18:59:23.137Z,15.20
2022-09-21T19:01:50.795Z,15.20
2022-09-21T19:04:20.231Z,15.20
2022-09-21T19:06:56.879Z,15.10
2022-09-21T19:10:01.038Z,15.10
2022-09-21T19:12:53.348Z,15.00
2022-09-21T19:15:58.988Z,15.00
2022-09-21T19:18:41.506Z,15.00
2022-09-21T19:21:39.488Z,15.00
2022-09-21T19:24:14.312Z,14.90
2022-09-21T19:27:12.011Z,14.90
2022-09-21T19:29:43.914Z,14.80
2022-09-21T19:32:31.917Z,14.80
2022-09-21T19:35:01.812Z,14.80
2022-09-21T19:37:28.678Z,14.70
2022-09-21T19:39:55.547Z,14.70
2022-09-21T19:42:34.491Z,14.70
2022-09-21T19:45:07.944Z,14.60
2022-09-21T19:47:52.959Z,14.60
2022-09-21T19:50:36.264Z,14.50
2022-09-21T19:53:24.282Z,14.50
2022-09-21T19:56:10.049Z,14.50
2022-09-21T19:58:55.245Z,14.40
2022-09-21T20:01:22.694Z,14.40
2022-09-21T20:03:50.162Z,14.40
2022-09-21T20:06:27.019Z,14.30
2022-09-21T20:09:17.024Z,14.30
2022-09-21T20:11:54.542Z,14.30
2022-09-21T20:14:35.005Z,14.20
2022-09-21T20:17:10.441Z,14.10
2022-09-21T20:19:58.160Z,14.10
2022-09-21T20:22:38.342Z,14.10
2022-09-21T20:25:42.670Z,14.10
2022-09-21T20:28:11.460Z,14.00
2022-09-21T20:30:39.995Z,14.00
2022-09-21T20:33:14.156Z,14.00
2022-09-21T20:35:42.787Z,14.00
2022-09-21T20:38:10.386Z,13.90
2022-09-21T20:40:38.402Z,13.90
2022-09-21T20:43:05.238Z,13.90
2022-09-21T20:45:33.256Z,13.80
2022-09-21T20:48:13.151Z,13.80
2022-09-21T20:50:46.302Z,13.80
2022-09-21T20:53:13.992Z,13.70
2022-09-21T20:55:41.719Z,13.70
2022-09-21T20:58:12.596Z,13.70
2022-09-21T21:00:39.807Z,13.60
2022-09-21T21:03:06.521Z,13.60
2022-09-21T21:05:34.384Z,13.60
2022-09-21T21:08:03.947Z,13.60
2022-09-21T21:10:31.682Z,13.50
2022-09-21T21:13:01.835Z,13.50
2022-09-21T21:15:29.197Z,13.40
2022-09-21T21:17:56.013Z,13.40
2022-09-21T21:20:22.816Z,13.40
2022-09-21T21:22:50.867Z,13.30
2022-09-21T21:25:18.509Z,13.30
2022-09-21T21:27:45.239Z,13.30
2022-09-21T21:30:12.451Z,13.20
2022-09-21T21:32:39.101Z,13.20
2022-09-21T21:35:06.411Z,13.20
2022-09-21T21:37:33.155Z,13.20
2022-09-21T21:40:00.461Z,13.10
2022-09-21T21:42:29.388Z,13.10
2022-09-21T21:44:56.448Z,13.10
2022-09-21T21:47:40.213Z,13.00
2022-09-21T21:50:08.008Z,13.00
2022-09-21T21:52:34.816Z,13.00
2022-09-21T21:55:02.496Z,13.00
2022-09-21T21:57:29.352Z,12.90
2022-09-21T21:59:56.070Z,12.90
2022-09-21T22:02:23.263Z,12.90
2022-09-21T22:04:50.104Z,12.90
2022-09-21T22:07:16.761Z,12.80
2022-09-21T22:09:43.504Z,12.80
2022-09-21T22:12:11.116Z,12.80
2022-09-21T22:14:38.017Z,12.70
2022-09-21T22:17:04.793Z,12.70
2022-09-21T22:19:31.725Z,12.70
2022-09-21T22:21:58.394Z,12.70
2022-09-21T22:24:26.188Z,12.60
2022-09-21T22:26:52.928Z,12.60
2022-09-21T22:29:19.698Z,12.60
2022-09-21T22:31:48.328Z,12.50
2022-09-21T22:34:15.933Z,12.50
2022-09-21T22:36:45.432Z,12.50
2022-09-21T22:39:12.548Z,12.50
2022-09-21T22:41:41.701Z,12.50
2022-09-21T22:44:09.203Z,12.40
2022-09-21T22:46:36.636Z,12.40
2022-09-21T22:49:03.987Z,12.40
2022-09-21T22:51:30.933Z,12.40
2022-09-21T22:53:58.112Z,12.30
2022-09-21T22:56:27.253Z,12.30
2022-09-21T22:58:56.003Z,12.30
2022-09-21T23:01:27.066Z,12.20
2022-09-21T23:03:57.387Z,12.20
2022-09-21T23:06:29.084Z,12.20
2022-09-21T23:08:57.712Z,12.20
2022-09-21T23:11:30.238Z,12.10
2022-09-21T23:13:58.130Z,12.10
2022-09-21T23:16:27.275Z,12.10
2022-09-21T23:18:54.899Z,12.10
2022-09-21T23:21:24.034Z,12.00
2022-09-21T23:23:54.749Z,12.00
2022-09-21T23:26:24.195Z,12.00
2022-09-21T23:28:56.499Z,12.00
2022-09-21T23:31:24.416Z,11.90
2022-09-21T23:33:53.401Z,11.90
2022-09-21T23:36:23.045Z,11.90
2022-09-21T23:38:51.325Z,11.90
2022-09-21T23:41:29.727Z,11.80
2022-09-21T23:43:57.744Z,11.90
2022-09-21T23:46:27.110Z,11.80
2022-09-21T23:48:54.433Z,11.80
2022-09-21T23:51:21.611Z,11.80
2022-09-21T23:53:48.429Z,11.80
2022-09-21T23:56:17.150Z,11.80
2022-09-21T23:58:44.048Z,11.70
